| time (UTC) | temp F | wind direction | speed knots | gust knots | rain 1hr in | rain 24hr in | rain mn in | humidity % | barometer mb |
| 20260504023039 | 59 | 58 | 1.7 | 4.3 | 0.00 | 0.09 | 0.09 | 100 | 981.8 |
| 20260504021537 | 59 | 58 | 0.0 | 1.7 | 0.00 | 0.09 | 0.09 | 100 | 981.7 |
| 20260504020031 | 60 | 60 | 0.9 | 4.3 | 0.00 | 0.09 | 0.09 | 100 | 981.5 |
| 20260504014526 | 60 | 59 | 0.9 | 7.0 | 0.00 | 0.09 | 0.09 | 100 | 981.4 |
| 20260504013029 | 61 | 50 | 0.9 | 6.1 | 0.00 | 0.09 | 0.09 | 100 | 981.4 |
| 20260504011516 | 62 | 54 | 1.7 | 6.1 | 0.00 | 0.09 | 0.09 | 100 | 981.2 |
| 20260504010013 | 63 | 56 | 1.7 | 6.1 | 0.00 | 0.09 | 0.09 | 100 | 981.2 |
| 20260504004510 | 64 | 61 | 1.7 | 8.7 | 0.00 | 0.09 | 0.09 | 100 | 981.2 |
| 20260504003100 | 65 | 63 | 2.6 | 8.7 | 0.00 | 0.09 | 0.09 | 100 | 981.4 |
| 20260504001612 | 66 | 42 | 2.6 | 9.6 | 0.00 | 0.09 | 0.09 | 100 | 981.2 |
| 20260504000052 | 66 | 63 | 4.3 | 12.2 | 0.00 | 0.09 | 0.09 | 100 | 981.3 |
| 20260503234548 | 67 | 58 | 3.5 | 9.6 | 0.00 | 0.09 | 0.09 | 100 | 981.3 |
| 20260503233040 | 67 | 57 | 0.9 | 13.9 | 0.00 | 0.09 | 0.09 | 100 | 981.2 |
| 20260503231536 | 67 | 48 | 3.5 | 10.4 | 0.00 | 0.09 | 0.09 | 100 | 981.4 |
| 20260503230032 | 67 | 31 | 1.7 | 13.9 | 0.00 | 0.09 | 0.09 | 100 | 981.5 |
| 20260503224528 | 66 | 40 | 2.6 | 9.6 | 0.00 | 0.09 | 0.09 | 100 | 981.6 |
| 20260503223020 | 66 | 22 | 2.6 | 13.0 | 0.00 | 0.09 | 0.09 | 100 | 981.8 |
| 20260503221528 | 66 | 37 | 0.9 | 14.8 | 0.00 | 0.09 | 0.09 | 100 | 981.9 |
| 20260503220012 | 66 | 42 | 2.6 | 11.3 | 0.00 | 0.09 | 0.09 | 100 | 982.1 |
| 20260503214507 | 67 | 16 | 3.5 | 13.9 | 0.00 | 0.09 | 0.09 | 100 | 982.3 |
| 20260503213003 | 66 | 39 | 2.6 | 15.6 | 0.00 | 0.09 | 0.09 | 100 | 982.5 |
| 20260503211608 | 65 | 58 | 0.9 | 14.8 | 0.00 | 0.09 | 0.09 | 100 | 982.8 |
| 20260503210056 | 64 | 25 | 5.2 | 18.2 | 0.00 | 0.09 | 0.09 | 100 | 983.1 |
| 20260503204553 | 64 | 75 | 1.7 | 17.4 | 0.00 | 0.09 | 0.09 | 100 | 983.3 |
| 20260503203040 | 65 | 91 | 3.5 | 16.5 | 0.00 | 0.09 | 0.09 | 100 | 983.4 |
| 20260503201537 | 63 | 13 | 5.2 | 16.5 | 0.00 | 0.09 | 0.09 | 100 | 983.6 |
| 20260503200034 | 63 | 11 | 9.6 | 20.0 | 0.00 | 0.09 | 0.09 | 100 | 983.6 |
| 20260503194530 | 64 | 13 | 1.7 | 18.2 | 0.00 | 0.09 | 0.09 | 100 | 983.8 |
| 20260503193021 | 63 | 25 | 9.6 | 19.1 | 0.00 | 0.09 | 0.09 | 100 | 984.1 |
| 20260503191521 | 62 | 2 | 2.6 | 18.2 | 0.00 | 0.09 | 0.09 | 100 | 984.5 |
| 20260503190019 | 59 | 50 | 5.2 | 19.1 | 0.00 | 0.09 | 0.09 | 100 | 984.7 |
| 20260503184509 | 57 | 14 | 2.6 | 16.5 | 0.01 | 0.09 | 0.09 | 100 | 985.1 |
| 20260503183112 | 54 | 350 | 3.5 | 13.9 | 0.02 | 0.09 | 0.09 | 100 | 985.4 |
| 20260503181622 | 51 | 35 | 3.5 | 9.6 | 0.03 | 0.09 | 0.09 | 100 | 985.7 |
| 20260503180113 | 49 | 33 | 2.6 | 11.3 | 0.04 | 0.09 | 0.09 | 100 | 986.3 |
| 20260503174555 | 49 | 41 | 0.9 | 12.2 | 0.03 | 0.08 | 0.08 | 100 | 987.1 |
| 20260503173053 | 49 | 53 | 0.9 | 8.7 | 0.02 | 0.07 | 0.07 | 100 | 987.8 |
| 20260503171639 | 49 | 26 | 1.7 | 7.0 | 0.03 | 0.06 | 0.06 | 100 | 988.2 |
| 20260503150103 | 54 | 67 | 4.3 | 13.0 | 0.00 | 0.00 | 0.00 | 100 | 988.8 |
| 20260503081518 | 44 | 66 | 2.6 | 7.8 | 0.00 | 0.00 | 0.00 | 100 | 990.1 |
| 20260503071531 | 44 | 52 | 1.7 | 5.2 | 0.00 | 0.00 | 0.00 | 100 | 990.2 |
| 20260503054557 | 45 | 62 | 0.9 | 7.8 | 0.00 | 0.00 | 0.00 | 100 | 990.9 |
| 20260503053053 | 45 | 66 | 1.7 | 7.8 | 0.00 | 0.00 | 0.00 | 100 | 991.1 |
| 20260503051549 | 45 | 87 | 1.7 | 6.1 | 0.00 | 0.00 | 0.00 | 100 | 991.1 |
| 20260503050042 | 45 | 92 | 0.9 | 3.5 | 0.00 | 0.00 | 0.00 | 100 | 991.2 |
| 20260503044607 | 45 | 93 | 0.9 | 3.5 | 0.00 | 0.00 | 0.00 | 100 | 991.3 |
| 20260503043034 | 45 | 94 | 0.9 | 2.6 | 0.00 | 0.00 | 0.00 | 100 | 991.3 |
| 20260503041529 | 45 | 95 | 0.9 | 4.3 | 0.00 | 0.00 | 0.00 | 100 | 991.4 |
| 20260503040021 | 45 | 96 | 1.7 | 3.5 | 0.00 | 0.00 | 0.00 | 100 | 991.4 |
| 20260503034518 | 45 | 98 | 1.7 | 3.5 | 0.00 | 0.00 | 0.00 | 100 | 991.4 |
| 20260503033014 | 46 | 98 | 0.9 | 3.5 | 0.00 | 0.00 | 0.00 | 100 | 991.4 |
| 20260503031508 | 46 | 98 | 0.9 | 2.6 | 0.00 | 0.00 | 0.00 | 100 | 991.4 |
| 20260503030002 | 47 | 98 | 0.0 | 2.6 | 0.00 | 0.00 | 0.00 | 100 | 991.6 |
| 20260503024601 | 47 | 98 | 0.9 | 2.6 | 0.00 | 0.00 | 0.00 | 100 | 991.7 |